createdAt,value
2023-05-10T00:04:15.970Z,100634.95
2023-05-10T00:09:18.223Z,100630.61
2023-05-10T00:14:20.419Z,100628.26
2023-05-10T00:19:22.604Z,100631.30
2023-05-10T00:24:24.773Z,100627.80
2023-05-10T00:29:28.598Z,100628.69
2023-05-10T00:34:31.402Z,100624.10
2023-05-10T00:39:33.489Z,100619.55
2023-05-10T00:44:35.671Z,100616.73
2023-05-10T00:49:38.256Z,100619.05
2023-05-10T00:54:40.980Z,100619.39
2023-05-10T00:59:43.201Z,100624.15
2023-05-10T01:04:45.562Z,100621.48
2023-05-10T01:09:47.919Z,100619.67
2023-05-10T01:14:50.109Z,100613.73
2023-05-10T01:19:52.388Z,100611.07
2023-05-10T01:25:17.722Z,100608.79
2023-05-10T01:30:36.396Z,100612.76
2023-05-10T01:36:04.686Z,100611.80
2023-05-10T01:41:09.830Z,100607.56
2023-05-10T01:46:21.466Z,100606.88
2023-05-10T01:51:26.790Z,100605.90
2023-05-10T01:56:31.460Z,100599.88
2023-05-10T02:01:37.003Z,100601.54
2023-05-10T02:06:40.823Z,100605.53
2023-05-10T02:11:44.656Z,100606.14
2023-05-10T02:16:48.010Z,100606.65
2023-05-10T02:21:51.988Z,100605.54
2023-05-10T02:26:58.973Z,100611.69
2023-05-10T02:32:02.127Z,100611.12
2023-05-10T02:37:06.846Z,100606.04
2023-05-10T02:42:10.246Z,100602.95
2023-05-10T02:47:12.335Z,100598.02
2023-05-10T02:52:19.946Z,100593.37
2023-05-10T02:57:28.194Z,100592.98
2023-05-10T03:02:31.501Z,100595.33
2023-05-10T03:07:34.585Z,100595.64
2023-05-10T03:12:58.096Z,100596.77
2023-05-10T03:18:06.841Z,100599.11
2023-05-10T03:23:17.694Z,100597.40
2023-05-10T03:28:21.526Z,100593.44
2023-05-10T03:33:23.596Z,100592.49
2023-05-10T03:38:25.677Z,100579.58
2023-05-10T03:43:27.873Z,100579.52
2023-05-10T03:48:29.945Z,100584.05
2023-05-10T03:53:32.139Z,100585.35
2023-05-10T03:58:34.737Z,100586.45
2023-05-10T04:03:36.964Z,100586.58
2023-05-10T04:08:39.507Z,100587.54
2023-05-10T04:13:41.725Z,100587.10
2023-05-10T04:18:43.771Z,100586.66
2023-05-10T04:23:46.072Z,100590.20
2023-05-10T04:28:48.136Z,100595.27
2023-05-10T04:33:50.626Z,100595.39
2023-05-10T04:38:53.426Z,100596.25
2023-05-10T04:43:56.133Z,100596.01
2023-05-10T04:48:58.305Z,100593.03
2023-05-10T04:54:06.043Z,100592.52
2023-05-10T04:59:09.019Z,100590.11
2023-05-10T05:04:10.933Z,100588.77
2023-05-10T05:09:13.092Z,100584.27
2023-05-10T05:14:15.269Z,100584.58
2023-05-10T05:19:17.454Z,100589.87
2023-05-10T05:24:19.537Z,100591.34
2023-05-10T05:29:21.719Z,100592.95
2023-05-10T05:34:25.024Z,100588.05
2023-05-10T05:39:27.017Z,100590.82
2023-05-10T05:44:30.650Z,100590.33
2023-05-10T05:49:33.635Z,100589.06
2023-05-10T05:54:35.812Z,100595.36
2023-05-10T05:59:42.401Z,100590.08
2023-05-10T06:04:44.892Z,100588.65
2023-05-10T06:09:47.077Z,100590.56
2023-05-10T06:14:49.162Z,100590.05
2023-05-10T06:19:51.244Z,100592.18
2023-05-10T06:24:53.323Z,100590.63
2023-05-10T06:30:02.161Z,100593.17
2023-05-10T06:35:08.550Z,100595.61
2023-05-10T06:40:11.154Z,100596.83
2023-05-10T06:45:14.931Z,100592.00
2023-05-10T06:50:17.148Z,100595.54
2023-05-10T06:55:19.675Z,100594.47
2023-05-10T07:00:21.880Z,100589.73
2023-05-10T07:05:24.225Z,100586.38
2023-05-10T07:10:27.120Z,100586.42
2023-05-10T07:15:29.301Z,100584.77
2023-05-10T07:20:31.489Z,100585.44
2023-05-10T07:25:33.666Z,100585.99
2023-05-10T07:30:36.706Z,100586.48
2023-05-10T07:35:39.162Z,100584.98
2023-05-10T07:40:41.249Z,100586.63
2023-05-10T07:45:43.868Z,100583.80
2023-05-10T07:50:46.322Z,100589.48
2023-05-10T07:55:52.401Z,100587.89
2023-05-10T08:00:54.790Z,100585.04
2023-05-10T08:05:56.971Z,100583.40
2023-05-10T08:10:59.065Z,100587.84
2023-05-10T08:16:01.279Z,100578.14
2023-05-10T08:21:03.625Z,100580.88
2023-05-10T08:26:06.230Z,100573.51
2023-05-10T08:31:08.667Z,100576.65
2023-05-10T08:36:11.407Z,100579.92
2023-05-10T08:41:14.616Z,100582.73
2023-05-10T08:46:18.898Z,100583.10
2023-05-10T08:51:27.255Z,100585.29
2023-05-10T08:56:29.266Z,100581.85
2023-05-10T09:01:33.397Z,100585.44
2023-05-10T09:06:35.884Z,100579.91
2023-05-10T09:11:38.188Z,100579.71
2023-05-10T09:16:42.147Z,100580.89
2023-05-10T09:21:44.388Z,100581.02
2023-05-10T09:26:48.938Z,100575.38
2023-05-10T09:31:54.876Z,100575.39
2023-05-10T09:37:02.172Z,100572.98
2023-05-10T09:42:06.792Z,100569.30
2023-05-10T09:47:08.818Z,100561.16
2023-05-10T09:52:11.015Z,100562.98
2023-05-10T09:57:22.019Z,100561.05
2023-05-10T10:02:29.924Z,100547.75
2023-05-10T10:07:32.825Z,100552.16
2023-05-10T10:12:36.336Z,100544.23
2023-05-10T10:17:41.522Z,100540.78
2023-05-10T10:22:46.655Z,100526.70
2023-05-10T10:27:48.736Z,100521.42
2023-05-10T10:32:50.831Z,100516.30
2023-05-10T10:37:53.139Z,100509.98
2023-05-10T10:42:56.648Z,100505.34
2023-05-10T10:48:21.933Z,100501.99
2023-05-10T10:53:27.985Z,100497.46
2023-05-10T10:58:36.032Z,100501.61
2023-05-10T11:03:38.219Z,100493.50
2023-05-10T11:08:44.597Z,100485.64
2023-05-10T11:13:51.355Z,100479.77
2023-05-10T11:19:08.359Z,100477.07
2023-05-10T11:24:15.419Z,100473.70
2023-05-10T11:29:17.703Z,100463.08
2023-05-10T11:34:34.131Z,100468.33
2023-05-10T11:39:36.305Z,100457.00
2023-05-10T11:44:38.504Z,100456.99
2023-05-10T11:49:44.570Z,100459.09
2023-05-10T11:54:52.908Z,100458.05
2023-05-10T11:59:57.034Z,100456.52
2023-05-10T12:04:59.211Z,100458.73
2023-05-10T12:10:08.708Z,100449.01
2023-05-10T12:15:23.858Z,100456.33
2023-05-10T12:20:28.493Z,100450.71
2023-05-10T12:25:33.208Z,100452.93
2023-05-10T12:30:37.005Z,100452.86
2023-05-10T12:35:53.170Z,100452.48
2023-05-10T12:40:55.649Z,100449.95
2023-05-10T12:45:58.189Z,100451.23
2023-05-10T12:51:01.637Z,100448.30
2023-05-10T12:56:03.654Z,100444.86
2023-05-10T13:01:06.571Z,100443.67
2023-05-10T13:06:08.846Z,100448.82
2023-05-10T13:11:10.966Z,100439.23
2023-05-10T13:16:13.062Z,100441.11
2023-05-10T13:21:15.292Z,100440.27
2023-05-10T13:26:17.678Z,100429.67
2023-05-10T13:31:19.804Z,100431.91
2023-05-10T13:36:23.382Z,100421.55
2023-05-10T13:41:25.777Z,100428.45
2023-05-10T13:46:28.023Z,100419.50
2023-05-10T13:51:32.187Z,100421.65
2023-05-10T13:56:34.425Z,100420.30
2023-05-10T14:01:37.108Z,100430.81
2023-05-10T14:06:39.259Z,100441.94
2023-05-10T14:11:43.923Z,100441.02
2023-05-10T14:16:46.234Z,100448.23
2023-05-10T14:21:48.366Z,100443.77
2023-05-10T14:26:54.136Z,100451.69
2023-05-10T14:31:56.348Z,100451.58
2023-05-10T14:36:58.922Z,100457.45
2023-05-10T14:42:01.000Z,100455.16
2023-05-10T14:47:03.074Z,100448.38
2023-05-10T14:52:11.517Z,100449.26
2023-05-10T14:57:13.688Z,100448.14
2023-05-10T15:02:15.900Z,100454.20
2023-05-10T15:07:18.979Z,100449.04
2023-05-10T15:12:21.163Z,100446.92
2023-05-10T15:17:23.284Z,100443.67
2023-05-10T15:22:25.525Z,100440.61
2023-05-10T15:27:27.814Z,100433.88
2023-05-10T15:32:30.524Z,100432.34
2023-05-10T15:37:32.696Z,100436.60
2023-05-10T15:42:34.982Z,100435.21
2023-05-10T15:47:39.797Z,100429.30
2023-05-10T15:52:41.917Z,100425.30
2023-05-10T15:57:44.608Z,100425.15
2023-05-10T16:02:46.856Z,100418.12
2023-05-10T16:07:49.286Z,100418.42
2023-05-10T16:12:51.371Z,100421.71
2023-05-10T16:17:53.550Z,100416.41
2023-05-10T16:22:55.843Z,100414.92
2023-05-10T16:27:59.055Z,100408.84
2023-05-10T16:33:02.000Z,100406.67
2023-05-10T16:38:04.132Z,100409.45
2023-05-10T16:43:07.342Z,100411.86
2023-05-10T16:48:09.525Z,100410.77
2023-05-10T16:53:11.734Z,100412.02
2023-05-10T16:58:13.895Z,100410.14
2023-05-10T17:03:16.157Z,100410.95
2023-05-10T17:08:18.269Z,100409.00
2023-05-10T17:13:20.449Z,100409.98
2023-05-10T17:18:22.777Z,100409.14
2023-05-10T17:23:24.818Z,100413.61
2023-05-10T17:28:27.111Z,100420.34
2023-05-10T17:33:29.297Z,100415.83
2023-05-10T17:38:31.477Z,100419.06
2023-05-10T17:43:33.562Z,100424.79
2023-05-10T17:48:38.916Z,100435.15
2023-05-10T17:53:41.404Z,100429.86
2023-05-10T17:58:43.588Z,100430.40
2023-05-10T18:03:45.973Z,100437.29
2023-05-10T18:08:48.175Z,100442.55
2023-05-10T18:13:50.235Z,100443.78
2023-05-10T18:18:52.477Z,100435.98
2023-05-10T18:23:54.511Z,100436.63
2023-05-10T18:28:58.076Z,100441.73
2023-05-10T18:34:01.544Z,100443.90
2023-05-10T18:39:04.132Z,100447.73
2023-05-10T18:44:06.222Z,100453.57
2023-05-10T18:49:08.601Z,100467.73
2023-05-10T18:54:11.200Z,100466.35
2023-05-10T18:59:13.902Z,100466.14
2023-05-10T19:04:16.137Z,100468.56
2023-05-10T19:09:20.639Z,100468.83
2023-05-10T19:14:24.372Z,100468.08
2023-05-10T19:19:27.351Z,100471.73
2023-05-10T19:24:31.164Z,100472.11
2023-05-10T19:29:33.244Z,100473.62
2023-05-10T19:34:35.633Z,100470.51
2023-05-10T19:39:38.847Z,100477.45
2023-05-10T19:44:40.957Z,100481.05
2023-05-10T19:49:43.144Z,100484.58
2023-05-10T19:54:45.507Z,100492.28
2023-05-10T19:59:47.680Z,100495.93
2023-05-10T20:04:49.697Z,100504.42
2023-05-10T20:09:51.843Z,100509.09
2023-05-10T20:14:54.033Z,100507.24
2023-05-10T20:19:56.159Z,100508.04
2023-05-10T20:25:00.408Z,100505.56
2023-05-10T20:30:03.761Z,100506.10
2023-05-10T20:35:06.733Z,100510.34
2023-05-10T20:40:09.307Z,100512.42
2023-05-10T20:45:11.844Z,100512.70
2023-05-10T20:50:13.932Z,100515.48
2023-05-10T20:55:16.111Z,100516.42
2023-05-10T21:00:19.048Z,100515.91
2023-05-10T21:05:21.678Z,100518.64
2023-05-10T21:10:25.220Z,100520.70
2023-05-10T21:15:27.515Z,100526.58
2023-05-10T21:20:30.020Z,100525.38
2023-05-10T21:25:32.495Z,100527.40
2023-05-10T21:30:34.682Z,100529.10
2023-05-10T21:35:39.038Z,100531.44
2023-05-10T21:40:41.096Z,100531.91
2023-05-10T21:45:43.335Z,100529.98
2023-05-10T21:50:47.414Z,100531.91
2023-05-10T21:55:49.610Z,100531.36
2023-05-10T22:00:52.139Z,100532.31
2023-05-10T22:05:54.269Z,100533.31
2023-05-10T22:10:56.352Z,100536.95
2023-05-10T22:15:58.944Z,100543.70
2023-05-10T22:21:01.149Z,100545.89
2023-05-10T22:26:03.737Z,100545.92
2023-05-10T22:31:10.938Z,100548.02
2023-05-10T22:36:14.750Z,100548.23
2023-05-10T22:41:16.936Z,100552.41
2023-05-10T22:46:19.078Z,100549.21
2023-05-10T22:51:21.300Z,100554.30
2023-05-10T22:56:23.492Z,100554.09
2023-05-10T23:01:25.692Z,100555.30
2023-05-10T23:06:27.965Z,100552.72
2023-05-10T23:11:30.245Z,100551.17
2023-05-10T23:16:32.461Z,100556.55
2023-05-10T23:21:34.817Z,100558.92
2023-05-10T23:26:37.001Z,100557.09
2023-05-10T23:31:44.728Z,100555.83
2023-05-10T23:36:47.002Z,100556.25
2023-05-10T23:41:49.298Z,100560.68
2023-05-10T23:46:51.475Z,100568.93
2023-05-10T23:51:53.661Z,100569.31
2023-05-10T23:56:55.845Z,100570.75
